Thursday, August 16, 2018, 1:55 AM EDT
Back to Local

KDOV, Dover Air Force Base

Location: Dover, DE, United States Lat: 39.133
Local Time: 1:55 AM EDT ( 5:55 GMT) Lon: -75.467
Time Zone: US/Eastern Elev: 29 ft

Show me the last for .
Show Decoded

2018-08-16 00:56 METAR KDOV 160456Z AUTO 23005KT 10SM CLR 23/20 A3004 RMK AO2 SLP175 T02320201
                 403090217 $ =
2018-08-15 23:56 METAR KDOV 160356Z AUTO 23003KT 10SM CLR 24/20 A3003 RMK AO2 SLP172 T02390204 $
                 =
2018-08-15 22:56 METAR KDOV 160256Z AUTO 24005KT 10SM CLR 24/20 A3003 RMK AO2 SLP172 T02440203
                 52014 $ =
2018-08-15 21:56 METAR KDOV 160156Z AUTO 22005KT 10SM CLR 25/21 A3002 RMK AO2 SLP169 T02500207 $
                 =
2018-08-15 20:56 METAR KDOV 160056Z 21004KT 10SM CLR 26/20 A3000 RMK AO2A SLP162 T02590202 $ =
2018-08-15 19:56 METAR KDOV 152356Z 22006KT 10SM BKN210 27/21 A2999 RMK AO2A SLP159 T02740205
                 10309 20274 $ =
2018-08-15 18:56 METAR KDOV 152256Z 24006KT 10SM SCT210 29/20 A2997 RMK AO2A SLP152 T02910200 $ =
2018-08-15 17:56 METAR KDOV 152156Z 24007KT 10SM SCT220 30/20 A2997 RMK AO2A SLP152 T03020204 $ =
2018-08-15 16:56 METAR KDOV 152056Z COR AUTO 25012KT 10SM FEW050 SCT210 30/20 A2997 RMK AO2
                 SLP152 T03020201 55004 $ COR 2115 =
2018-08-15 14:56 METAR KDOV 151856Z AUTO 27005KT 10SM SCT050 31/20 A2998 RMK AO2 SLP155 T03050204
                 $ =
2018-08-15 13:56 METAR KDOV 151756Z AUTO 26009KT 10SM FEW047 FEW200 30/20 A2998 RMK AO2 SLP155
                 T02990195 10303 20233 58001 $ =
2018-08-15 12:56 METAR KDOV 151656Z AUTO 30008KT 10SM FEW200 30/20 A2998 RMK AO2 SLP155 T02960201
                 $ =
2018-08-15 11:56 METAR KDOV 151556Z AUTO 26008KT 10SM CLR 29/20 A2999 RMK AO2 SLP159 T02900204 $
                 =
2018-08-15 10:56 METAR KDOV 151456Z AUTO 30009KT 10SM CLR 28/20 A2999 RMK AO2 SLP159 T02800203
                 52012 $ =
2018-08-15 09:56 METAR KDOV 151356Z AUTO 29006KT 10SM CLR 27/20 A2998 RMK AO2 SLP155 T02660202 $
                 =
2018-08-15 08:56 METAR KDOV 151256Z AUTO 27006KT 10SM CLR 25/20 A2997 RMK AO2 SLP152 T02500202 $
                 =
2018-08-15 07:56 METAR KDOV 151156Z AUTO 26007KT 10SM CLR 23/20 A2995 RMK AO2 SLP145 T02320197
                 10232 20217 52009 $ =
2018-08-15 06:56 METAR KDOV 151056Z AUTO 25008KT 10SM CLR 22/19 A2995 RMK AO2 SLP145 T02180191
                 TSNO $ =
2018-08-15 05:56 METAR KDOV 150956Z AUTO 25007KT 10SM CLR 22/19 A2993 RMK AO2 SLP138 T02170190
                 TSNO $ =
2018-08-15 04:56 METAR KDOV 150856Z AUTO 24008KT 10SM FEW120 22/19 A2992 RMK AO2 SLP135 T02200191
                 55001 TSNO $ =
2018-08-15 03:56 METAR KDOV 150756Z AUTO 24006KT 10SM CLR 22/19 A2992 RMK AO2 SLP135 T02230194
                 TSNO $ =
2018-08-15 02:56 METAR KDOV 150656Z AUTO 24008KT 10SM FEW080 SCT095 23/19 A2992 RMK AO2 SLP135
                 T02290194 TSNO $ =
2018-08-15 01:56 METAR KDOV 150556Z AUTO 24006KT 10SM BKN085 BKN170 23/20 A2993 RMK AO2 SLP138
                 T02320199 10256 20232 58001 TSNO $ =

Support USWX by starting your Amazon purchase here.